sensor_id;sensor_type;location;lat;lon;timestamp;pressure;altitude;pressure_sealevel;temperature;humidity
9277;BME280;4676;42.678;23.244;2023-04-03T00:01:07;93476.47;;;8.14;99.70
9277;BME280;4676;42.678;23.244;2023-04-03T00:03:34;93476.72;;;8.28;98.13
9277;BME280;4676;42.678;23.244;2023-04-03T00:06:01;93467.63;;;8.24;98.17
9277;BME280;4676;42.678;23.244;2023-04-03T00:08:28;93469.22;;;8.26;97.34
9277;BME280;4676;42.678;23.244;2023-04-03T00:10:56;93464.22;;;8.25;97.72
9277;BME280;4676;42.678;23.244;2023-04-03T00:13:24;93463.63;;;8.20;99.29
9277;BME280;4676;42.678;23.244;2023-04-03T00:15:51;93463.72;;;8.17;99.59
9277;BME280;4676;42.678;23.244;2023-04-03T00:18:18;93457.22;;;8.11;99.52
9277;BME280;4676;42.678;23.244;2023-04-03T00:20:45;93448.97;;;8.08;100.00
9277;BME280;4676;42.678;23.244;2023-04-03T00:23:12;93446.44;;;8.08;99.76
9277;BME280;4676;42.678;23.244;2023-04-03T00:25:38;93450.91;;;8.21;99.46
9277;BME280;4676;42.678;23.244;2023-04-03T00:28:05;93445.06;;;8.00;100.00
9277;BME280;4676;42.678;23.244;2023-04-03T00:30:33;93454.66;;;8.13;100.00
9277;BME280;4676;42.678;23.244;2023-04-03T00:33:00;93452.66;;;7.99;100.00
9277;BME280;4676;42.678;23.244;2023-04-03T00:35:27;93450.75;;;8.06;100.00
9277;BME280;4676;42.678;23.244;2023-04-03T00:37:55;93447.53;;;8.02;100.00
9277;BME280;4676;42.678;23.244;2023-04-03T00:40:22;93457.63;;;8.02;100.00
9277;BME280;4676;42.678;23.244;2023-04-03T00:42:54;93457.53;;;8.03;100.00
9277;BME280;4676;42.678;23.244;2023-04-03T00:45:35;93451.91;;;7.97;100.00
9277;BME280;4676;42.678;23.244;2023-04-03T00:48:04;93448.66;;;7.95;100.00
9277;BME280;4676;42.678;23.244;2023-04-03T00:50:33;93449.66;;;7.91;100.00
9277;BME280;4676;42.678;23.244;2023-04-03T00:53:01;93455.75;;;7.85;100.00
9277;BME280;4676;42.678;23.244;2023-04-03T00:55:29;93449.13;;;8.03;100.00
9277;BME280;4676;42.678;23.244;2023-04-03T00:57:56;93458.38;;;8.04;100.00
9277;BME280;4676;42.678;23.244;2023-04-03T01:00:23;93465.22;;;8.00;100.00
9277;BME280;4676;42.678;23.244;2023-04-03T01:02:52;93462.59;;;8.03;100.00
9277;BME280;4676;42.678;23.244;2023-04-03T01:05:20;93463.97;;;7.90;100.00
9277;BME280;4676;42.678;23.244;2023-04-03T01:07:48;93463.59;;;7.99;100.00
9277;BME280;4676;42.678;23.244;2023-04-03T01:10:16;93460.56;;;7.91;100.00
9277;BME280;4676;42.678;23.244;2023-04-03T01:12:46;93466.31;;;7.95;100.00
9277;BME280;4676;42.678;23.244;2023-04-03T01:15:15;93468.34;;;7.85;100.00
9277;BME280;4676;42.678;23.244;2023-04-03T01:17:44;93462.03;;;7.75;100.00
9277;BME280;4676;42.678;23.244;2023-04-03T01:20:36;93463.00;;;7.73;100.00
9277;BME280;4676;42.678;23.244;2023-04-03T01:23:20;93463.97;;;7.69;100.00
9277;BME280;4676;42.678;23.244;2023-04-03T01:25:50;93468.56;;;7.59;100.00
9277;BME280;4676;42.678;23.244;2023-04-03T01:28:20;93472.22;;;7.52;100.00
9277;BME280;4676;42.678;23.244;2023-04-03T01:30:50;93465.88;;;7.42;100.00
9277;BME280;4676;42.678;23.244;2023-04-03T01:33:20;93471.22;;;7.34;100.00
9277;BME280;4676;42.678;23.244;2023-04-03T01:35:47;93470.81;;;7.22;100.00
9277;BME280;4676;42.678;23.244;2023-04-03T01:38:14;93472.56;;;7.21;100.00
9277;BME280;4676;42.678;23.244;2023-04-03T01:40:41;93471.31;;;7.10;100.00
9277;BME280;4676;42.678;23.244;2023-04-03T01:43:08;93467.09;;;7.10;100.00
9277;BME280;4676;42.678;23.244;2023-04-03T01:45:35;93465.88;;;7.20;100.00
9277;BME280;4676;42.678;23.244;2023-04-03T01:48:02;93466.19;;;7.11;100.00
9277;BME280;4676;42.678;23.244;2023-04-03T01:50:30;93468.31;;;7.00;100.00
9277;BME280;4676;42.678;23.244;2023-04-03T01:52:57;93460.03;;;6.96;100.00
9277;BME280;4676;42.678;23.244;2023-04-03T01:55:24;93470.31;;;6.90;100.00
9277;BME280;4676;42.678;23.244;2023-04-03T01:57:50;93476.41;;;6.85;100.00
9277;BME280;4676;42.678;23.244;2023-04-03T02:00:17;93466.47;;;6.80;100.00
9277;BME280;4676;42.678;23.244;2023-04-03T02:02:44;93469.38;;;6.70;100.00
9277;BME280;4676;42.678;23.244;2023-04-03T02:05:11;93463.38;;;6.74;100.00
9277;BME280;4676;42.678;23.244;2023-04-03T02:07:39;93455.31;;;6.64;100.00
9277;BME280;4676;42.678;23.244;2023-04-03T02:10:06;93453.81;;;6.59;100.00
9277;BME280;4676;42.678;23.244;2023-04-03T02:12:33;93466.69;;;6.51;100.00
9277;BME280;4676;42.678;23.244;2023-04-03T02:14:59;93459.34;;;6.45;100.00
9277;BME280;4676;42.678;23.244;2023-04-03T02:17:26;93464.34;;;6.46;100.00
9277;BME280;4676;42.678;23.244;2023-04-03T02:19:53;93469.41;;;6.45;100.00
9277;BME280;4676;42.678;23.244;2023-04-03T02:22:20;93466.84;;;6.46;100.00
9277;BME280;4676;42.678;23.244;2023-04-03T02:24:48;93457.25;;;6.58;100.00
9277;BME280;4676;42.678;23.244;2023-04-03T02:27:15;93449.16;;;6.48;100.00
9277;BME280;4676;42.678;23.244;2023-04-03T02:29:41;93449.44;;;6.40;100.00
9277;BME280;4676;42.678;23.244;2023-04-03T02:32:08;93446.88;;;6.42;100.00
9277;BME280;4676;42.678;23.244;2023-04-03T02:34:35;93454.28;;;6.46;100.00
9277;BME280;4676;42.678;23.244;2023-04-03T02:37:01;93450.44;;;6.60;100.00
9277;BME280;4676;42.678;23.244;2023-04-03T02:39:28;93447.22;;;6.56;100.00
9277;BME280;4676;42.678;23.244;2023-04-03T02:41:56;93447.38;;;6.51;100.00
9277;BME280;4676;42.678;23.244;2023-04-03T02:44:23;93449.84;;;6.53;100.00
9277;BME280;4676;42.678;23.244;2023-04-03T02:46:49;93447.53;;;6.47;100.00
9277;BME280;4676;42.678;23.244;2023-04-03T02:49:16;93445.06;;;6.45;100.00
9277;BME280;4676;42.678;23.244;2023-04-03T02:51:43;93442.00;;;6.37;100.00
9277;BME280;4676;42.678;23.244;2023-04-03T02:54:13;93441.22;;;6.35;100.00
9277;BME280;4676;42.678;23.244;2023-04-03T02:56:39;93437.75;;;6.39;100.00
9277;BME280;4676;42.678;23.244;2023-04-03T02:59:07;93435.34;;;6.36;100.00
9277;BME280;4676;42.678;23.244;2023-04-03T03:01:34;93433.91;;;6.29;100.00
9277;BME280;4676;42.678;23.244;2023-04-03T03:04:02;93429.06;;;6.23;100.00
9277;BME280;4676;42.678;23.244;2023-04-03T03:06:28;93431.31;;;6.31;100.00
9277;BME280;4676;42.678;23.244;2023-04-03T03:08:55;93426.44;;;6.26;100.00
9277;BME280;4676;42.678;23.244;2023-04-03T03:11:22;93426.50;;;6.25;100.00
9277;BME280;4676;42.678;23.244;2023-04-03T03:13:49;93430.56;;;6.29;100.00
9277;BME280;4676;42.678;23.244;2023-04-03T03:16:17;93417.03;;;6.31;100.00
9277;BME280;4676;42.678;23.244;2023-04-03T03:18:43;93426.50;;;6.25;100.00
9277;BME280;4676;42.678;23.244;2023-04-03T03:21:11;93423.13;;;6.26;100.00
9277;BME280;4676;42.678;23.244;2023-04-03T03:23:37;93419.00;;;6.23;100.00
9277;BME280;4676;42.678;23.244;2023-04-03T03:26:08;93407.69;;;6.12;100.00
9277;BME280;4676;42.678;23.244;2023-04-03T03:28:36;93421.13;;;6.11;100.00
9277;BME280;4676;42.678;23.244;2023-04-03T03:31:04;93425.41;;;6.09;100.00
9277;BME280;4676;42.678;23.244;2023-04-03T03:33:32;93424.72;;;6.03;100.00
9277;BME280;4676;42.678;23.244;2023-04-03T03:35:59;93425.81;;;5.95;100.00
9277;BME280;4676;42.678;23.244;2023-04-03T03:38:26;93424.25;;;5.92;100.00
9277;BME280;4676;42.678;23.244;2023-04-03T03:40:53;93427.09;;;5.82;100.00
9277;BME280;4676;42.678;23.244;2023-04-03T03:43:20;93431.53;;;5.74;100.00
9277;BME280;4676;42.678;23.244;2023-04-03T03:45:50;93425.06;;;5.67;100.00
9277;BME280;4676;42.678;23.244;2023-04-03T03:48:17;93416.72;;;5.66;100.00
9277;BME280;4676;42.678;23.244;2023-04-03T03:50:45;93425.44;;;5.81;100.00
9277;BME280;4676;42.678;23.244;2023-04-03T03:53:12;93417.22;;;5.76;100.00
9277;BME280;4676;42.678;23.244;2023-04-03T03:55:40;93428.34;;;5.69;100.00
9277;BME280;4676;42.678;23.244;2023-04-03T03:58:07;93435.19;;;5.65;100.00
9277;BME280;4676;42.678;23.244;2023-04-03T04:00:34;93433.63;;;5.61;100.00
9277;BME280;4676;42.678;23.244;2023-04-03T04:03:01;93439.13;;;5.72;100.00
9277;BME280;4676;42.678;23.244;2023-04-03T04:05:27;93432.47;;;5.71;100.00
9277;BME280;4676;42.678;23.244;2023-04-03T04:07:55;93425.69;;;5.73;100.00
9277;BME280;4676;42.678;23.244;2023-04-03T04:10:22;93428.47;;;5.66;100.00
9277;BME280;4676;42.678;23.244;2023-04-03T04:12:49;93425.16;;;5.64;100.00
9277;BME280;4676;42.678;23.244;2023-04-03T04:15:16;93430.28;;;5.61;100.00
9277;BME280;4676;42.678;23.244;2023-04-03T04:17:43;93435.41;;;5.58;100.00
9277;BME280;4676;42.678;23.244;2023-04-03T04:20:10;93449.66;;;5.57;100.00
9277;BME280;4676;42.678;23.244;2023-04-03T04:22:37;93453.69;;;5.63;100.00
9277;BME280;4676;42.678;23.244;2023-04-03T04:25:07;93452.09;;;5.60;100.00
9277;BME280;4676;42.678;23.244;2023-04-03T04:27:34;93448.13;;;5.53;100.00
9277;BME280;4676;42.678;23.244;2023-04-03T04:30:02;93444.59;;;5.59;100.00
9277;BME280;4676;42.678;23.244;2023-04-03T04:32:29;93445.59;;;5.79;100.00
9277;BME280;4676;42.678;23.244;2023-04-03T04:34:56;93450.19;;;5.67;100.00
9277;BME280;4676;42.678;23.244;2023-04-03T04:37:23;93454.31;;;5.69;100.00
9277;BME280;4676;42.678;23.244;2023-04-03T04:39:49;93461.03;;;5.69;100.00
9277;BME280;4676;42.678;23.244;2023-04-03T04:42:18;93458.56;;;5.67;100.00
9277;BME280;4676;42.678;23.244;2023-04-03T04:44:44;93455.53;;;5.84;100.00
9277;BME280;4676;42.678;23.244;2023-04-03T04:47:11;93459.34;;;5.95;100.00
9277;BME280;4676;42.678;23.244;2023-04-03T04:49:38;93460.38;;;5.90;100.00
9277;BME280;4676;42.678;23.244;2023-04-03T04:52:04;93469.63;;;5.89;100.00
9277;BME280;4676;42.678;23.244;2023-04-03T04:54:31;93466.38;;;5.84;100.00
9277;BME280;4676;42.678;23.244;2023-04-03T04:56:58;93472.03;;;5.92;100.00
9277;BME280;4676;42.678;23.244;2023-04-03T04:59:26;93468.56;;;5.95;100.00
9277;BME280;4676;42.678;23.244;2023-04-03T05:01:53;93476.84;;;5.98;100.00
9277;BME280;4676;42.678;23.244;2023-04-03T05:04:20;93476.78;;;6.01;100.00
9277;BME280;4676;42.678;23.244;2023-04-03T05:06:46;93478.22;;;6.09;100.00
9277;BME280;4676;42.678;23.244;2023-04-03T05:09:13;93478.97;;;6.11;100.00
9277;BME280;4676;42.678;23.244;2023-04-03T05:11:40;93485.94;;;6.27;100.00
9277;BME280;4676;42.678;23.244;2023-04-03T05:14:08;93429.16;;;5.95;100.00
9277;BME280;4676;42.678;23.244;2023-04-03T05:16:36;93482.44;;;6.33;100.00
9277;BME280;4676;42.678;23.244;2023-04-03T05:19:03;93499.72;;;6.42;100.00
9277;BME280;4676;42.678;23.244;2023-04-03T05:21:30;93464.97;;;6.28;100.00
9277;BME280;4676;42.678;23.244;2023-04-03T05:23:57;93495.19;;;6.51;100.00
9277;BME280;4676;42.678;23.244;2023-04-03T05:26:25;93503.31;;;6.83;100.00
9277;BME280;4676;42.678;23.244;2023-04-03T05:28:52;93498.53;;;7.00;100.00
9277;BME280;4676;42.678;23.244;2023-04-03T05:31:19;93487.63;;;6.99;100.00
9277;BME280;4676;42.678;23.244;2023-04-03T05:33:47;93496.00;;;7.00;100.00
9277;BME280;4676;42.678;23.244;2023-04-03T05:36:14;93491.97;;;6.96;100.00
9277;BME280;4676;42.678;23.244;2023-04-03T05:38:41;93490.84;;;7.03;100.00
9277;BME280;4676;42.678;23.244;2023-04-03T05:41:07;93485.75;;;7.04;100.00
9277;BME280;4676;42.678;23.244;2023-04-03T05:43:34;93487.66;;;7.21;100.00
9277;BME280;4676;42.678;23.244;2023-04-03T05:46:03;93492.75;;;7.20;100.00
9277;BME280;4676;42.678;23.244;2023-04-03T05:48:29;93490.06;;;7.24;100.00
9277;BME280;4676;42.678;23.244;2023-04-03T05:50:58;93489.19;;;7.25;100.00
9277;BME280;4676;42.678;23.244;2023-04-03T05:53:27;93487.47;;;7.26;100.00
9277;BME280;4676;42.678;23.244;2023-04-03T05:55:54;93484.75;;;7.09;100.00
9277;BME280;4676;42.678;23.244;2023-04-03T05:58:21;93488.22;;;7.06;100.00
9277;BME280;4676;42.678;23.244;2023-04-03T06:00:48;93482.78;;;6.93;100.00
9277;BME280;4676;42.678;23.244;2023-04-03T06:03:15;93488.53;;;6.97;100.00
9277;BME280;4676;42.678;23.244;2023-04-03T06:05:42;93487.19;;;6.88;100.00
9277;BME280;4676;42.678;23.244;2023-04-03T06:08:10;93487.56;;;6.78;100.00
9277;BME280;4676;42.678;23.244;2023-04-03T06:10:38;93478.31;;;6.78;100.00
9277;BME280;4676;42.678;23.244;2023-04-03T06:13:05;93468.78;;;6.86;100.00
9277;BME280;4676;42.678;23.244;2023-04-03T06:15:31;93458.44;;;6.94;100.00
9277;BME280;4676;42.678;23.244;2023-04-03T06:17:59;93459.84;;;7.01;100.00
9277;BME280;4676;42.678;23.244;2023-04-03T06:20:26;93456.41;;;7.03;100.00
9277;BME280;4676;42.678;23.244;2023-04-03T06:22:53;93458.69;;;7.10;100.00
9277;BME280;4676;42.678;23.244;2023-04-03T06:25:21;93470.34;;;7.12;100.00
9277;BME280;4676;42.678;23.244;2023-04-03T06:27:47;93463.22;;;7.23;100.00
9277;BME280;4676;42.678;23.244;2023-04-03T06:30:14;93470.03;;;7.43;100.00
9277;BME280;4676;42.678;23.244;2023-04-03T06:32:41;93458.53;;;7.58;100.00
9277;BME280;4676;42.678;23.244;2023-04-03T06:35:08;93462.72;;;7.59;100.00
9277;BME280;4676;42.678;23.244;2023-04-03T06:37:36;93464.84;;;7.68;100.00
9277;BME280;4676;42.678;23.244;2023-04-03T06:40:03;93466.91;;;7.80;100.00
9277;BME280;4676;42.678;23.244;2023-04-03T06:42:38;93477.00;;;7.80;100.00
9277;BME280;4676;42.678;23.244;2023-04-03T06:45:06;93471.59;;;7.89;100.00
9277;BME280;4676;42.678;23.244;2023-04-03T06:47:33;93467.75;;;8.00;100.00
9277;BME280;4676;42.678;23.244;2023-04-03T06:49:59;93471.81;;;8.04;100.00
9277;BME280;4676;42.678;23.244;2023-04-03T06:52:26;93469.16;;;8.08;100.00
9277;BME280;4676;42.678;23.244;2023-04-03T06:54:53;93474.91;;;8.11;100.00
9277;BME280;4676;42.678;23.244;2023-04-03T06:57:22;93482.16;;;8.19;100.00
9277;BME280;4676;42.678;23.244;2023-04-03T06:59:51;93490.06;;;8.31;100.00
9277;BME280;4676;42.678;23.244;2023-04-03T07:02:17;93493.50;;;8.50;100.00
9277;BME280;4676;42.678;23.244;2023-04-03T07:04:46;93490.94;;;8.71;100.00
9277;BME280;4676;42.678;23.244;2023-04-03T07:07:12;93487.50;;;8.92;100.00
9277;BME280;4676;42.678;23.244;2023-04-03T07:09:40;93464.41;;;8.81;100.00
9277;BME280;4676;42.678;23.244;2023-04-03T07:14:52;93472.38;;;8.72;100.00
9277;BME280;4676;42.678;23.244;2023-04-03T07:17:19;93468.59;;;8.62;100.00
9277;BME280;4676;42.678;23.244;2023-04-03T07:19:46;93479.63;;;8.79;100.00
9277;BME280;4676;42.678;23.244;2023-04-03T07:22:12;93482.03;;;8.82;100.00
9277;BME280;4676;42.678;23.244;2023-04-03T07:24:39;93468.97;;;8.91;100.00
9277;BME280;4676;42.678;23.244;2023-04-03T07:27:06;93471.13;;;9.00;100.00
9277;BME280;4676;42.678;23.244;2023-04-03T07:29:34;93466.72;;;9.23;100.00
9277;BME280;4676;42.678;23.244;2023-04-03T07:32:02;93459.25;;;9.21;100.00
9277;BME280;4676;42.678;23.244;2023-04-03T07:34:29;93458.47;;;9.19;100.00
9277;BME280;4676;42.678;23.244;2023-04-03T07:36:56;93461.63;;;9.24;100.00
9277;BME280;4676;42.678;23.244;2023-04-03T07:39:23;93454.44;;;9.34;100.00
9277;BME280;4676;42.678;23.244;2023-04-03T07:41:50;93454.75;;;9.45;100.00
9277;BME280;4676;42.678;23.244;2023-04-03T07:44:16;93442.31;;;9.40;100.00
9277;BME280;4676;42.678;23.244;2023-04-03T07:46:43;93437.56;;;9.34;98.87
9277;BME280;4676;42.678;23.244;2023-04-03T07:49:11;93439.25;;;9.34;97.30
9277;BME280;4676;42.678;23.244;2023-04-03T07:51:38;93438.47;;;9.50;96.63
9277;BME280;4676;42.678;23.244;2023-04-03T07:54:05;93443.03;;;9.61;93.92
9277;BME280;4676;42.678;23.244;2023-04-03T07:56:31;93442.84;;;9.66;94.29
9277;BME280;4676;42.678;23.244;2023-04-03T07:58:58;93436.44;;;9.76;98.29
9277;BME280;4676;42.678;23.244;2023-04-03T08:01:25;93381.44;;;9.62;97.36
9277;BME280;4676;42.678;23.244;2023-04-03T08:03:52;93432.25;;;9.75;98.27
9277;BME280;4676;42.678;23.244;2023-04-03T08:06:20;93430.47;;;9.60;98.28
9277;BME280;4676;42.678;23.244;2023-04-03T08:08:47;93434.78;;;9.75;96.12
9277;BME280;4676;42.678;23.244;2023-04-03T08:11:13;93431.53;;;9.73;94.95
9277;BME280;4676;42.678;23.244;2023-04-03T08:13:40;93427.97;;;9.77;98.43
9277;BME280;4676;42.678;23.244;2023-04-03T08:16:10;93417.25;;;9.89;98.06
9277;BME280;4676;42.678;23.244;2023-04-03T08:18:37;93433.84;;;10.12;94.71
9277;BME280;4676;42.678;23.244;2023-04-03T08:21:07;93431.50;;;10.26;95.71
9277;BME280;4676;42.678;23.244;2023-04-03T08:23:36;93423.53;;;10.33;96.75
9277;BME280;4676;42.678;23.244;2023-04-03T08:26:07;93427.16;;;10.45;95.09
9277;BME280;4676;42.678;23.244;2023-04-03T08:28:34;93428.22;;;10.41;92.58
9277;BME280;4676;42.678;23.244;2023-04-03T08:31:05;93421.47;;;10.57;93.53
9277;BME280;4676;42.678;23.244;2023-04-03T08:33:32;93431.31;;;10.46;94.25
9277;BME280;4676;42.678;23.244;2023-04-03T08:36:01;93419.66;;;10.59;95.11
9277;BME280;4676;42.678;23.244;2023-04-03T08:38:28;93415.13;;;10.66;91.48
9277;BME280;4676;42.678;23.244;2023-04-03T08:41:06;93410.25;;;10.78;89.88
9277;BME280;4676;42.678;23.244;2023-04-03T08:43:42;93420.22;;;10.81;88.72
9277;BME280;4676;42.678;23.244;2023-04-03T08:46:16;93404.47;;;10.59;88.29
9277;BME280;4676;42.678;23.244;2023-04-03T08:48:43;93401.94;;;10.59;89.16
9277;BME280;4676;42.678;23.244;2023-04-03T08:51:13;93405.66;;;10.85;92.05
9277;BME280;4676;42.678;23.244;2023-04-03T08:53:45;93398.16;;;10.99;83.87
9277;BME280;4676;42.678;23.244;2023-04-03T08:56:18;93399.06;;;11.14;83.99
9277;BME280;4676;42.678;23.244;2023-04-03T08:58:48;93397.34;;;11.14;82.03
9277;BME280;4676;42.678;23.244;2023-04-03T09:01:19;93386.72;;;11.08;79.83
9277;BME280;4676;42.678;23.244;2023-04-03T09:03:46;93387.72;;;11.36;80.67
9277;BME280;4676;42.678;23.244;2023-04-03T09:06:15;93385.25;;;11.35;85.38
9277;BME280;4676;42.678;23.244;2023-04-03T09:08:48;93382.22;;;11.28;82.44
9277;BME280;4676;42.678;23.244;2023-04-03T09:11:23;93380.00;;;11.38;82.38
9277;BME280;4676;42.678;23.244;2023-04-03T09:13:54;93377.28;;;11.41;80.82
9277;BME280;4676;42.678;23.244;2023-04-03T09:16:32;93378.81;;;11.59;77.83
9277;BME280;4676;42.678;23.244;2023-04-03T09:19:09;93371.28;;;11.58;80.16
9277;BME280;4676;42.678;23.244;2023-04-03T09:21:38;93367.19;;;11.55;78.76
9277;BME280;4676;42.678;23.244;2023-04-03T09:24:09;93367.31;;;11.38;79.82
9277;BME280;4676;42.678;23.244;2023-04-03T09:26:41;93354.03;;;11.48;80.66
9277;BME280;4676;42.678;23.244;2023-04-03T09:29:16;93355.56;;;11.51;79.04
9277;BME280;4676;42.678;23.244;2023-04-03T09:31:45;93335.44;;;11.64;78.61
9277;BME280;4676;42.678;23.244;2023-04-03T09:34:18;93358.41;;;11.76;75.06
9277;BME280;4676;42.678;23.244;2023-04-03T09:36:48;93347.56;;;11.74;75.47
9277;BME280;4676;42.678;23.244;2023-04-03T09:39:18;93349.31;;;11.88;75.95
9277;BME280;4676;42.678;23.244;2023-04-03T09:41:59;93342.50;;;11.88;73.53
9277;BME280;4676;42.678;23.244;2023-04-03T09:44:28;93330.38;;;12.08;73.53
9277;BME280;4676;42.678;23.244;2023-04-03T09:46:55;93337.91;;;12.09;71.07
9277;BME280;4676;42.678;23.244;2023-04-03T09:49:22;93332.47;;;12.15;71.54
9277;BME280;4676;42.678;23.244;2023-04-03T09:51:49;93331.41;;;12.33;73.61
9277;BME280;4676;42.678;23.244;2023-04-03T09:54:34;93323.97;;;12.16;71.43
9277;BME280;4676;42.678;23.244;2023-04-03T09:57:08;93315.44;;;12.03;69.71
9277;BME280;4676;42.678;23.244;2023-04-03T09:59:43;93323.13;;;12.16;70.40
9277;BME280;4676;42.678;23.244;2023-04-03T10:02:24;93325.75;;;12.28;70.24
9277;BME280;4676;42.678;23.244;2023-04-03T10:04:55;93324.16;;;12.56;68.69
9277;BME280;4676;42.678;23.244;2023-04-03T10:07:31;93318.00;;;12.31;67.35
9277;BME280;4676;42.678;23.244;2023-04-03T10:10:00;93314.88;;;12.26;68.97
9277;BME280;4676;42.678;23.244;2023-04-03T10:12:29;93318.69;;;12.47;68.77
9277;BME280;4676;42.678;23.244;2023-04-03T10:14:58;93313.69;;;12.46;66.84
9277;BME280;4676;42.678;23.244;2023-04-03T10:17:37;93311.25;;;12.44;66.36
9277;BME280;4676;42.678;23.244;2023-04-03T10:20:22;93310.81;;;12.38;66.08
9277;BME280;4676;42.678;23.244;2023-04-03T10:22:59;93302.56;;;12.48;67.65
9277;BME280;4676;42.678;23.244;2023-04-03T10:25:29;93305.53;;;12.55;66.39
9277;BME280;4676;42.678;23.244;2023-04-03T10:28:00;93294.63;;;12.53;66.46
9277;BME280;4676;42.678;23.244;2023-04-03T10:30:42;93289.47;;;12.40;65.91
9277;BME280;4676;42.678;23.244;2023-04-03T10:33:21;93296.66;;;12.48;67.51
9277;BME280;4676;42.678;23.244;2023-04-03T10:36:02;93296.09;;;12.57;64.71
9277;BME280;4676;42.678;23.244;2023-04-03T10:38:42;93285.41;;;12.52;63.87
9277;BME280;4676;42.678;23.244;2023-04-03T10:41:16;93285.28;;;12.68;65.15
9277;BME280;4676;42.678;23.244;2023-04-03T10:43:50;93284.09;;;12.73;64.36
9277;BME280;4676;42.678;23.244;2023-04-03T10:46:23;93277.13;;;12.48;63.61
9277;BME280;4676;42.678;23.244;2023-04-03T10:49:03;93283.09;;;12.62;64.65
9277;BME280;4676;42.678;23.244;2023-04-03T10:51:37;93282.19;;;12.77;65.08
9277;BME280;4676;42.678;23.244;2023-04-03T10:54:11;93273.72;;;12.76;64.58
9277;BME280;4676;42.678;23.244;2023-04-03T10:56:41;93276.53;;;12.86;66.28
9277;BME280;4676;42.678;23.244;2023-04-03T10:59:25;93263.09;;;12.84;64.97
9277;BME280;4676;42.678;23.244;2023-04-03T11:01:56;93280.91;;;12.84;65.22
9277;BME280;4676;42.678;23.244;2023-04-03T11:04:27;93277.56;;;12.69;66.25
9277;BME280;4676;42.678;23.244;2023-04-03T11:07:00;93288.66;;;12.54;67.43
9277;BME280;4676;42.678;23.244;2023-04-03T11:09:31;93287.94;;;12.52;69.93
9277;BME280;4676;42.678;23.244;2023-04-03T11:12:04;93292.72;;;12.57;72.29
9277;BME280;4676;42.678;23.244;2023-04-03T11:14:36;93289.75;;;12.50;75.33
9277;BME280;4676;42.678;23.244;2023-04-03T11:17:11;93283.31;;;12.44;79.45
9277;BME280;4676;42.678;23.244;2023-04-03T11:19:45;93292.84;;;12.27;85.44
9277;BME280;4676;42.678;23.244;2023-04-03T11:22:22;93285.94;;;12.15;87.29
9277;BME280;4676;42.678;23.244;2023-04-03T11:27:19;93286.38;;;11.93;95.50
9277;BME280;4676;42.678;23.244;2023-04-03T11:29:51;93282.66;;;11.98;100.00
9277;BME280;4676;42.678;23.244;2023-04-03T11:32:45;93282.69;;;11.69;100.00
9277;BME280;4676;42.678;23.244;2023-04-03T11:35:16;93285.09;;;11.56;100.00
9277;BME280;4676;42.678;23.244;2023-04-03T11:37:46;93286.84;;;11.40;100.00
9277;BME280;4676;42.678;23.244;2023-04-03T11:40:22;93280.34;;;11.36;100.00
9277;BME280;4676;42.678;23.244;2023-04-03T11:42:52;93277.41;;;11.28;100.00
9277;BME280;4676;42.678;23.244;2023-04-03T11:45:35;93281.72;;;11.12;100.00
9277;BME280;4676;42.678;23.244;2023-04-03T11:48:04;93280.72;;;11.14;100.00
9277;BME280;4676;42.678;23.244;2023-04-03T11:50:43;93278.66;;;11.05;100.00
9277;BME280;4676;42.678;23.244;2023-04-03T11:53:31;93286.91;;;11.09;100.00
9277;BME280;4676;42.678;23.244;2023-04-03T11:56:03;93286.59;;;11.15;100.00
9277;BME280;4676;42.678;23.244;2023-04-03T11:58:31;93282.81;;;11.22;100.00
9277;BME280;4676;42.678;23.244;2023-04-03T12:04:11;93283.34;;;10.97;100.00
9277;BME280;4676;42.678;23.244;2023-04-03T12:10:01;93286.72;;;10.97;100.00
9277;BME280;4676;42.678;23.244;2023-04-03T12:12:34;93268.56;;;10.89;100.00
9277;BME280;4676;42.678;23.244;2023-04-03T12:15:46;93282.28;;;10.70;100.00
9277;BME280;4676;42.678;23.244;2023-04-03T12:18:41;93277.50;;;10.65;100.00
9277;BME280;4676;42.678;23.244;2023-04-03T12:21:10;93263.31;;;10.45;100.00
9277;BME280;4676;42.678;23.244;2023-04-03T12:24:00;93267.50;;;10.31;100.00
9277;BME280;4676;42.678;23.244;2023-04-03T12:26:31;93263.94;;;10.18;100.00
9277;BME280;4676;42.678;23.244;2023-04-03T12:29:02;93263.59;;;10.08;100.00
9277;BME280;4676;42.678;23.244;2023-04-03T12:31:41;93263.91;;;10.02;100.00
9277;BME280;4676;42.678;23.244;2023-04-03T12:34:23;93266.06;;;9.92;100.00
9277;BME280;4676;42.678;23.244;2023-04-03T12:36:59;93259.44;;;9.90;100.00
9277;BME280;4676;42.678;23.244;2023-04-03T12:39:50;93258.88;;;9.85;100.00
9277;BME280;4676;42.678;23.244;2023-04-03T12:45:21;93216.47;;;9.23;100.00
9277;BME280;4676;42.678;23.244;2023-04-03T12:47:49;93243.09;;;9.30;100.00
9277;BME280;4676;42.678;23.244;2023-04-03T12:50:21;93240.91;;;9.05;100.00
9277;BME280;4676;42.678;23.244;2023-04-03T12:52:56;93241.06;;;8.85;100.00
9277;BME280;4676;42.678;23.244;2023-04-03T12:55:24;93230.72;;;8.72;100.00
9277;BME280;4676;42.678;23.244;2023-04-03T12:57:51;93235.69;;;8.74;100.00
9277;BME280;4676;42.678;23.244;2023-04-03T13:00:29;93237.69;;;8.67;100.00
9277;BME280;4676;42.678;23.244;2023-04-03T13:02:57;93245.13;;;8.51;100.00
9277;BME280;4676;42.678;23.244;2023-04-03T13:05:25;93243.06;;;8.60;100.00
9277;BME280;4676;42.678;23.244;2023-04-03T13:07:58;93237.06;;;8.62;100.00
9277;BME280;4676;42.678;23.244;2023-04-03T13:10:25;93237.72;;;8.66;100.00
9277;BME280;4676;42.678;23.244;2023-04-03T13:12:54;93235.31;;;8.45;100.00
9277;BME280;4676;42.678;23.244;2023-04-03T13:15:23;93234.75;;;8.58;100.00
9277;BME280;4676;42.678;23.244;2023-04-03T13:17:50;93231.78;;;8.49;100.00
9277;BME280;4676;42.678;23.244;2023-04-03T13:20:21;93233.56;;;8.47;100.00
9277;BME280;4676;42.678;23.244;2023-04-03T13:22:52;93202.31;;;8.31;100.00
9277;BME280;4676;42.678;23.244;2023-04-03T13:25:23;93225.50;;;8.39;100.00
9277;BME280;4676;42.678;23.244;2023-04-03T13:27:50;93224.47;;;8.25;100.00
9277;BME280;4676;42.678;23.244;2023-04-03T13:30:21;93211.16;;;8.21;100.00
9277;BME280;4676;42.678;23.244;2023-04-03T13:32:50;93219.00;;;8.15;100.00
9277;BME280;4676;42.678;23.244;2023-04-03T13:35:35;93236.34;;;8.23;100.00
9277;BME280;4676;42.678;23.244;2023-04-03T13:38:07;93232.31;;;8.19;100.00